sensor_id;sensor_type;location;lat;lon;timestamp;P1;durP1;ratioP1;P2;durP2;ratioP2
27367;SDS011;14839;48.106;11.618;2022-09-01T04:01:17;18.53;;;12.70;;
27367;SDS011;14839;48.106;11.618;2022-09-01T04:03:43;23.33;;;15.20;;
27367;SDS011;14839;48.106;11.618;2022-09-01T04:06:13;23.23;;;15.30;;
27367;SDS011;14839;48.106;11.618;2022-09-01T04:08:39;21.17;;;14.30;;
27367;SDS011;14839;48.106;11.618;2022-09-01T04:11:15;22.23;;;13.97;;
27367;SDS011;14839;48.106;11.618;2022-09-01T04:13:42;24.77;;;14.43;;
27367;SDS011;14839;48.106;11.618;2022-09-01T04:16:21;22.90;;;14.70;;
27367;SDS011;14839;48.106;11.618;2022-09-01T04:19:07;23.67;;;14.87;;
27367;SDS011;14839;48.106;11.618;2022-09-01T04:21:44;20.40;;;12.90;;
27367;SDS011;14839;48.106;11.618;2022-09-01T04:24:18;19.27;;;12.10;;
27367;SDS011;14839;48.106;11.618;2022-09-01T04:26:45;21.67;;;14.27;;
27367;SDS011;14839;48.106;11.618;2022-09-01T04:29:12;19.13;;;12.53;;
27367;SDS011;14839;48.106;11.618;2022-09-01T04:31:38;25.87;;;14.20;;
27367;SDS011;14839;48.106;11.618;2022-09-01T04:34:04;19.87;;;13.73;;
27367;SDS011;14839;48.106;11.618;2022-09-01T04:36:40;23.70;;;13.77;;
27367;SDS011;14839;48.106;11.618;2022-09-01T04:39:08;22.27;;;14.93;;
27367;SDS011;14839;48.106;11.618;2022-09-01T04:41:38;23.70;;;15.50;;
27367;SDS011;14839;48.106;11.618;2022-09-01T04:44:06;25.03;;;15.53;;
27367;SDS011;14839;48.106;11.618;2022-09-01T04:46:40;25.03;;;15.43;;
27367;SDS011;14839;48.106;11.618;2022-09-01T04:49:06;24.47;;;14.07;;
27367;SDS011;14839;48.106;11.618;2022-09-01T04:51:36;22.47;;;15.50;;
27367;SDS011;14839;48.106;11.618;2022-09-01T04:54:03;25.53;;;16.20;;
27367;SDS011;14839;48.106;11.618;2022-09-01T04:56:36;28.53;;;16.40;;
27367;SDS011;14839;48.106;11.618;2022-09-01T04:59:02;26.47;;;16.03;;
27367;SDS011;14839;48.106;11.618;2022-09-01T05:01:31;26.30;;;15.03;;
27367;SDS011;14839;48.106;11.618;2022-09-01T05:04:07;26.50;;;15.10;;
27367;SDS011;14839;48.106;11.618;2022-09-01T05:06:36;25.97;;;15.57;;
27367;SDS011;14839;48.106;11.618;2022-09-01T05:09:06;21.60;;;15.73;;
27367;SDS011;14839;48.106;11.618;2022-09-01T05:11:34;27.07;;;15.73;;
27367;SDS011;14839;48.106;11.618;2022-09-01T05:14:01;26.73;;;15.80;;
27367;SDS011;14839;48.106;11.618;2022-09-01T05:16:29;26.17;;;15.83;;
27367;SDS011;14839;48.106;11.618;2022-09-01T05:18:55;23.17;;;15.40;;
27367;SDS011;14839;48.106;11.618;2022-09-01T05:21:22;18.17;;;13.63;;
27367;SDS011;14839;48.106;11.618;2022-09-01T05:23:52;20.87;;;13.23;;
27367;SDS011;14839;48.106;11.618;2022-09-01T05:26:20;19.03;;;11.50;;
27367;SDS011;14839;48.106;11.618;2022-09-01T05:28:52;18.47;;;12.20;;
27367;SDS011;14839;48.106;11.618;2022-09-01T05:31:20;18.80;;;12.20;;
27367;SDS011;14839;48.106;11.618;2022-09-01T05:33:47;18.63;;;11.87;;
27367;SDS011;14839;48.106;11.618;2022-09-01T05:36:16;17.10;;;11.63;;
27367;SDS011;14839;48.106;11.618;2022-09-01T05:38:44;21.80;;;12.90;;
27367;SDS011;14839;48.106;11.618;2022-09-01T05:41:12;19.00;;;11.87;;
27367;SDS011;14839;48.106;11.618;2022-09-01T05:43:40;19.00;;;12.27;;
27367;SDS011;14839;48.106;11.618;2022-09-01T05:46:10;16.50;;;10.97;;
27367;SDS011;14839;48.106;11.618;2022-09-01T05:48:39;16.53;;;10.83;;
27367;SDS011;14839;48.106;11.618;2022-09-01T05:51:06;20.80;;;11.93;;
27367;SDS011;14839;48.106;11.618;2022-09-01T05:53:33;18.90;;;12.13;;
27367;SDS011;14839;48.106;11.618;2022-09-01T05:55:59;19.00;;;10.77;;
27367;SDS011;14839;48.106;11.618;2022-09-01T05:58:31;14.47;;;10.03;;
27367;SDS011;14839;48.106;11.618;2022-09-01T06:00:58;16.17;;;9.50;;
27367;SDS011;14839;48.106;11.618;2022-09-01T06:03:25;14.33;;;9.53;;
27367;SDS011;14839;48.106;11.618;2022-09-01T06:05:51;13.10;;;8.63;;
27367;SDS011;14839;48.106;11.618;2022-09-01T06:08:20;12.50;;;8.37;;
27367;SDS011;14839;48.106;11.618;2022-09-01T06:10:47;11.93;;;8.20;;
27367;SDS011;14839;48.106;11.618;2022-09-01T06:13:14;12.20;;;7.60;;
27367;SDS011;14839;48.106;11.618;2022-09-01T06:15:42;13.13;;;8.47;;
27367;SDS011;14839;48.106;11.618;2022-09-01T06:18:09;15.73;;;9.43;;
27367;SDS011;14839;48.106;11.618;2022-09-01T06:20:40;15.63;;;9.33;;
27367;SDS011;14839;48.106;11.618;2022-09-01T06:23:07;16.23;;;10.10;;
27367;SDS011;14839;48.106;11.618;2022-09-01T06:25:36;18.67;;;9.40;;
27367;SDS011;14839;48.106;11.618;2022-09-01T06:28:03;15.57;;;8.67;;
27367;SDS011;14839;48.106;11.618;2022-09-01T06:30:30;13.47;;;9.20;;
27367;SDS011;14839;48.106;11.618;2022-09-01T06:32:56;16.37;;;9.83;;
27367;SDS011;14839;48.106;11.618;2022-09-01T06:35:25;12.97;;;9.03;;
27367;SDS011;14839;48.106;11.618;2022-09-01T06:37:53;12.77;;;7.87;;
27367;SDS011;14839;48.106;11.618;2022-09-01T06:40:22;12.00;;;8.30;;
27367;SDS011;14839;48.106;11.618;2022-09-01T06:42:50;14.63;;;8.50;;
27367;SDS011;14839;48.106;11.618;2022-09-01T06:45:21;16.20;;;9.07;;
27367;SDS011;14839;48.106;11.618;2022-09-01T06:47:48;14.03;;;8.63;;
27367;SDS011;14839;48.106;11.618;2022-09-01T06:50:16;12.80;;;8.63;;
27367;SDS011;14839;48.106;11.618;2022-09-01T06:52:46;13.03;;;8.43;;
27367;SDS011;14839;48.106;11.618;2022-09-01T06:55:14;12.37;;;8.00;;
27367;SDS011;14839;48.106;11.618;2022-09-01T06:57:41;15.17;;;8.30;;
27367;SDS011;14839;48.106;11.618;2022-09-01T07:00:16;12.47;;;8.20;;
27367;SDS011;14839;48.106;11.618;2022-09-01T07:02:46;12.63;;;8.47;;
27367;SDS011;14839;48.106;11.618;2022-09-01T07:05:17;13.80;;;8.77;;
27367;SDS011;14839;48.106;11.618;2022-09-01T07:07:47;11.40;;;8.30;;
27367;SDS011;14839;48.106;11.618;2022-09-01T07:10:15;10.77;;;7.60;;
27367;SDS011;14839;48.106;11.618;2022-09-01T07:12:46;13.03;;;8.63;;
27367;SDS011;14839;48.106;11.618;2022-09-01T07:15:13;13.27;;;8.57;;
27367;SDS011;14839;48.106;11.618;2022-09-01T07:17:42;10.47;;;7.87;;
27367;SDS011;14839;48.106;11.618;2022-09-01T07:20:13;9.77;;;7.40;;
27367;SDS011;14839;48.106;11.618;2022-09-01T07:22:39;9.83;;;7.17;;
27367;SDS011;14839;48.106;11.618;2022-09-01T07:25:05;10.47;;;7.03;;
27367;SDS011;14839;48.106;11.618;2022-09-01T07:27:32;11.00;;;7.40;;
27367;SDS011;14839;48.106;11.618;2022-09-01T07:29:57;11.37;;;7.73;;
27367;SDS011;14839;48.106;11.618;2022-09-01T07:32:24;9.60;;;7.07;;
27367;SDS011;14839;48.106;11.618;2022-09-01T07:34:50;8.13;;;6.60;;
27367;SDS011;14839;48.106;11.618;2022-09-01T07:37:16;7.47;;;6.00;;
27367;SDS011;14839;48.106;11.618;2022-09-01T07:39:42;7.83;;;6.30;;
27367;SDS011;14839;48.106;11.618;2022-09-01T07:42:10;7.93;;;5.63;;
27367;SDS011;14839;48.106;11.618;2022-09-01T07:44:36;8.53;;;6.10;;
27367;SDS011;14839;48.106;11.618;2022-09-01T07:47:03;7.93;;;6.17;;
27367;SDS011;14839;48.106;11.618;2022-09-01T07:49:32;7.80;;;5.80;;
27367;SDS011;14839;48.106;11.618;2022-09-01T07:51:58;10.17;;;6.07;;
27367;SDS011;14839;48.106;11.618;2022-09-01T07:54:25;7.50;;;6.27;;
27367;SDS011;14839;48.106;11.618;2022-09-01T07:56:51;8.20;;;5.60;;
27367;SDS011;14839;48.106;11.618;2022-09-01T07:59:19;6.80;;;5.03;;
27367;SDS011;14839;48.106;11.618;2022-09-01T08:01:45;6.33;;;5.60;;
27367;SDS011;14839;48.106;11.618;2022-09-01T08:04:11;7.67;;;5.50;;
27367;SDS011;14839;48.106;11.618;2022-09-01T08:06:37;7.07;;;6.00;;
27367;SDS011;14839;48.106;11.618;2022-09-01T08:09:03;5.97;;;5.37;;
27367;SDS011;14839;48.106;11.618;2022-09-01T08:11:31;6.77;;;5.80;;
27367;SDS011;14839;48.106;11.618;2022-09-01T08:13:57;6.43;;;5.07;;
27367;SDS011;14839;48.106;11.618;2022-09-01T08:16:28;8.47;;;6.10;;
27367;SDS011;14839;48.106;11.618;2022-09-01T08:18:55;5.30;;;4.80;;
27367;SDS011;14839;48.106;11.618;2022-09-01T08:21:21;6.50;;;5.60;;
27367;SDS011;14839;48.106;11.618;2022-09-01T08:23:49;7.03;;;4.53;;
27367;SDS011;14839;48.106;11.618;2022-09-01T08:26:16;7.00;;;5.33;;
27367;SDS011;14839;48.106;11.618;2022-09-01T08:28:45;7.13;;;5.27;;
27367;SDS011;14839;48.106;11.618;2022-09-01T08:31:12;4.80;;;4.23;;
27367;SDS011;14839;48.106;11.618;2022-09-01T08:33:40;6.07;;;5.00;;
27367;SDS011;14839;48.106;11.618;2022-09-01T08:36:07;5.77;;;4.83;;
27367;SDS011;14839;48.106;11.618;2022-09-01T08:38:35;5.53;;;4.40;;
27367;SDS011;14839;48.106;11.618;2022-09-01T08:41:01;6.00;;;4.83;;
27367;SDS011;14839;48.106;11.618;2022-09-01T08:45:57;6.37;;;3.73;;
27367;SDS011;14839;48.106;11.618;2022-09-01T08:48:37;5.73;;;4.83;;
27367;SDS011;14839;48.106;11.618;2022-09-01T08:51:17;4.40;;;4.00;;
27367;SDS011;14839;48.106;11.618;2022-09-01T08:53:58;4.30;;;3.90;;
27367;SDS011;14839;48.106;11.618;2022-09-01T08:56:28;4.30;;;3.83;;
27367;SDS011;14839;48.106;11.618;2022-09-01T08:58:56;7.70;;;4.30;;
27367;SDS011;14839;48.106;11.618;2022-09-01T09:07:25;6.13;;;5.07;;
27367;SDS011;14839;48.106;11.618;2022-09-01T09:10:05;4.43;;;3.90;;
27367;SDS011;14839;48.106;11.618;2022-09-01T09:18:09;4.20;;;3.80;;
27367;SDS011;14839;48.106;11.618;2022-09-01T09:20:51;4.33;;;3.93;;
27367;SDS011;14839;48.106;11.618;2022-09-01T09:23:25;4.20;;;3.80;;
27367;SDS011;14839;48.106;11.618;2022-09-01T09:25:56;5.40;;;3.83;;
27367;SDS011;14839;48.106;11.618;2022-09-01T09:28:22;3.80;;;3.40;;
27367;SDS011;14839;48.106;11.618;2022-09-01T09:30:48;4.67;;;3.60;;
27367;SDS011;14839;48.106;11.618;2022-09-01T09:33:33;4.60;;;4.17;;
27367;SDS011;14839;48.106;11.618;2022-09-01T09:39:03;3.87;;;3.57;;
27367;SDS011;14839;48.106;11.618;2022-09-01T09:41:41;5.77;;;4.57;;
27367;SDS011;14839;48.106;11.618;2022-09-01T09:46:54;4.53;;;3.70;;
27367;SDS011;14839;48.106;11.618;2022-09-01T09:49:31;4.23;;;3.83;;
27367;SDS011;14839;48.106;11.618;2022-09-01T09:54:27;4.30;;;3.90;;
27367;SDS011;14839;48.106;11.618;2022-09-01T09:57:03;4.30;;;3.83;;
27367;SDS011;14839;48.106;11.618;2022-09-01T09:59:34;3.50;;;3.20;;
27367;SDS011;14839;48.106;11.618;2022-09-01T10:02:16;4.87;;;3.17;;
27367;SDS011;14839;48.106;11.618;2022-09-01T10:04:49;3.73;;;3.40;;
27367;SDS011;14839;48.106;11.618;2022-09-01T10:07:27;3.13;;;2.83;;
27367;SDS011;14839;48.106;11.618;2022-09-01T10:09:55;3.53;;;3.23;;
27367;SDS011;14839;48.106;11.618;2022-09-01T10:12:24;5.97;;;3.37;;
27367;SDS011;14839;48.106;11.618;2022-09-01T10:15:07;4.53;;;2.53;;
27367;SDS011;14839;48.106;11.618;2022-09-01T10:17:35;4.47;;;3.27;;
27367;SDS011;14839;48.106;11.618;2022-09-01T10:20:05;3.40;;;2.67;;
27367;SDS011;14839;48.106;11.618;2022-09-01T10:22:42;2.50;;;2.17;;
27367;SDS011;14839;48.106;11.618;2022-09-01T10:25:10;3.50;;;2.80;;
27367;SDS011;14839;48.106;11.618;2022-09-01T10:27:42;2.90;;;2.57;;
27367;SDS011;14839;48.106;11.618;2022-09-01T10:30:16;5.00;;;3.40;;
27367;SDS011;14839;48.106;11.618;2022-09-01T10:32:45;2.77;;;2.57;;
27367;SDS011;14839;48.106;11.618;2022-09-01T10:37:52;3.00;;;2.70;;
27367;SDS011;14839;48.106;11.618;2022-09-01T10:42:53;3.23;;;2.80;;
27367;SDS011;14839;48.106;11.618;2022-09-01T10:45:34;3.60;;;2.63;;
27367;SDS011;14839;48.106;11.618;2022-09-01T10:50:50;4.53;;;3.27;;
27367;SDS011;14839;48.106;11.618;2022-09-01T11:04:06;3.37;;;2.70;;
27367;SDS011;14839;48.106;11.618;2022-09-01T11:14:53;2.47;;;2.23;;
27367;SDS011;14839;48.106;11.618;2022-09-01T11:17:25;2.47;;;2.27;;
27367;SDS011;14839;48.106;11.618;2022-09-01T11:30:45;2.20;;;1.87;;
27367;SDS011;14839;48.106;11.618;2022-09-01T11:36:23;2.23;;;1.77;;
27367;SDS011;14839;48.106;11.618;2022-09-01T11:39:03;2.53;;;1.90;;
27367;SDS011;14839;48.106;11.618;2022-09-01T11:44:13;2.37;;;1.90;;
27367;SDS011;14839;48.106;11.618;2022-09-01T11:46:45;1.93;;;1.73;;
27367;SDS011;14839;48.106;11.618;2022-09-01T11:49:24;1.73;;;1.63;;
27367;SDS011;14839;48.106;11.618;2022-09-01T11:51:52;1.87;;;1.60;;
27367;SDS011;14839;48.106;11.618;2022-09-01T11:54:18;1.50;;;1.40;;
27367;SDS011;14839;48.106;11.618;2022-09-01T11:56:43;5.70;;;1.57;;
27367;SDS011;14839;48.106;11.618;2022-09-01T11:59:09;1.50;;;1.40;;
27367;SDS011;14839;48.106;11.618;2022-09-01T12:01:36;2.70;;;1.50;;
27367;SDS011;14839;48.106;11.618;2022-09-01T12:04:16;1.70;;;1.33;;
27367;SDS011;14839;48.106;11.618;2022-09-01T12:06:52;2.90;;;1.33;;
27367;SDS011;14839;48.106;11.618;2022-09-01T12:09:35;2.20;;;1.80;;
27367;SDS011;14839;48.106;11.618;2022-09-01T12:12:05;1.30;;;1.20;;
27367;SDS011;14839;48.106;11.618;2022-09-01T12:14:31;1.93;;;1.63;;
27367;SDS011;14839;48.106;11.618;2022-09-01T12:17:04;1.53;;;1.43;;
27367;SDS011;14839;48.106;11.618;2022-09-01T12:19:31;1.57;;;1.40;;
27367;SDS011;14839;48.106;11.618;2022-09-01T12:22:03;1.80;;;1.47;;
27367;SDS011;14839;48.106;11.618;2022-09-01T12:24:38;5.60;;;1.30;;
27367;SDS011;14839;48.106;11.618;2022-09-01T12:27:10;1.50;;;1.27;;
27367;SDS011;14839;48.106;11.618;2022-09-01T12:29:36;1.50;;;1.40;;
27367;SDS011;14839;48.106;11.618;2022-09-01T12:32:02;1.55;;;1.45;;
27367;SDS011;14839;48.106;11.618;2022-09-01T12:39:36;1.70;;;1.40;;
27367;SDS011;14839;48.106;11.618;2022-09-01T12:45:01;2.30;;;1.47;;
27367;SDS011;14839;48.106;11.618;2022-09-01T12:50:01;1.73;;;1.07;;
27367;SDS011;14839;48.106;11.618;2022-09-01T12:52:28;1.30;;;1.20;;
27367;SDS011;14839;48.106;11.618;2022-09-01T12:57:38;1.53;;;1.20;;
27367;SDS011;14839;48.106;11.618;2022-09-01T13:07:59;1.52;;;1.42;;
27367;SDS011;14839;48.106;11.618;2022-09-01T13:10:31;1.40;;;1.30;;
27367;SDS011;14839;48.106;11.618;2022-09-01T13:13:01;2.70;;;1.30;;
27367;SDS011;14839;48.106;11.618;2022-09-01T13:15:27;1.70;;;1.50;;
27367;SDS011;14839;48.106;11.618;2022-09-01T13:17:54;1.50;;;1.40;;
27367;SDS011;14839;48.106;11.618;2022-09-01T13:20:21;2.37;;;1.63;;
27367;SDS011;14839;48.106;11.618;2022-09-01T13:22:47;1.70;;;1.37;;
27367;SDS011;14839;48.106;11.618;2022-09-01T13:25:14;2.03;;;1.63;;
27367;SDS011;14839;48.106;11.618;2022-09-01T13:27:44;1.20;;;1.10;;
27367;SDS011;14839;48.106;11.618;2022-09-01T13:30:11;1.50;;;1.40;;
27367;SDS011;14839;48.106;11.618;2022-09-01T13:32:39;1.63;;;1.37;;
27367;SDS011;14839;48.106;11.618;2022-09-01T13:35:06;1.30;;;1.07;;
27367;SDS011;14839;48.106;11.618;2022-09-01T13:37:31;1.50;;;1.40;;
27367;SDS011;14839;48.106;11.618;2022-09-01T13:39:57;1.30;;;1.20;;
27367;SDS011;14839;48.106;11.618;2022-09-01T13:42:23;1.30;;;1.07;;
27367;SDS011;14839;48.106;11.618;2022-09-01T13:44:49;1.83;;;1.40;;
27367;SDS011;14839;48.106;11.618;2022-09-01T13:47:14;1.40;;;1.30;;
27367;SDS011;14839;48.106;11.618;2022-09-01T13:49:40;2.10;;;1.37;;
27367;SDS011;14839;48.106;11.618;2022-09-01T13:52:05;1.77;;;1.30;;
27367;SDS011;14839;48.106;11.618;2022-09-01T13:54:31;1.50;;;1.20;;
27367;SDS011;14839;48.106;11.618;2022-09-01T13:56:57;1.43;;;1.10;;
27367;SDS011;14839;48.106;11.618;2022-09-01T13:59:23;1.23;;;1.13;;
27367;SDS011;14839;48.106;11.618;2022-09-01T14:01:48;1.80;;;1.30;;
27367;SDS011;14839;48.106;11.618;2022-09-01T14:04:14;1.50;;;1.40;;
27367;SDS011;14839;48.106;11.618;2022-09-01T14:06:41;2.90;;;1.10;;
27367;SDS011;14839;48.106;11.618;2022-09-01T14:09:11;1.97;;;1.50;;
27367;SDS011;14839;48.106;11.618;2022-09-01T14:11:38;1.13;;;1.07;;
27367;SDS011;14839;48.106;11.618;2022-09-01T14:14:04;1.20;;;1.10;;
27367;SDS011;14839;48.106;11.618;2022-09-01T14:16:30;3.47;;;1.27;;
27367;SDS011;14839;48.106;11.618;2022-09-01T14:18:56;1.47;;;1.37;;
27367;SDS011;14839;48.106;11.618;2022-09-01T14:21:23;1.73;;;1.63;;
27367;SDS011;14839;48.106;11.618;2022-09-01T14:23:49;1.63;;;1.40;;
27367;SDS011;14839;48.106;11.618;2022-09-01T14:26:15;1.33;;;1.23;;
27367;SDS011;14839;48.106;11.618;2022-09-01T14:28:42;2.03;;;1.30;;
27367;SDS011;14839;48.106;11.618;2022-09-01T14:31:10;3.50;;;1.70;;
27367;SDS011;14839;48.106;11.618;2022-09-01T14:33:37;1.73;;;1.40;;
27367;SDS011;14839;48.106;11.618;2022-09-01T14:36:03;3.23;;;1.60;;
27367;SDS011;14839;48.106;11.618;2022-09-01T14:38:30;1.50;;;1.40;;
27367;SDS011;14839;48.106;11.618;2022-09-01T14:40:56;1.43;;;1.10;;
27367;SDS011;14839;48.106;11.618;2022-09-01T14:43:22;1.30;;;1.20;;
27367;SDS011;14839;48.106;11.618;2022-09-01T14:45:48;0.90;;;0.90;;
27367;SDS011;14839;48.106;11.618;2022-09-01T14:48:15;0.90;;;0.90;;
27367;SDS011;14839;48.106;11.618;2022-09-01T14:50:43;1.20;;;1.10;;
27367;SDS011;14839;48.106;11.618;2022-09-01T14:53:10;1.93;;;1.10;;
27367;SDS011;14839;48.106;11.618;2022-09-01T14:55:36;1.17;;;1.07;;
27367;SDS011;14839;48.106;11.618;2022-09-01T14:58:02;2.07;;;1.23;;
27367;SDS011;14839;48.106;11.618;2022-09-01T15:00:28;0.80;;;0.80;;
27367;SDS011;14839;48.106;11.618;2022-09-01T15:02:55;1.00;;;0.90;;
27367;SDS011;14839;48.106;11.618;2022-09-01T15:05:21;1.20;;;1.10;;
27367;SDS011;14839;48.106;11.618;2022-09-01T15:07:48;1.23;;;1.13;;
27367;SDS011;14839;48.106;11.618;2022-09-01T15:10:16;1.70;;;1.20;;
27367;SDS011;14839;48.106;11.618;2022-09-01T15:12:43;1.13;;;1.03;;
27367;SDS011;14839;48.106;11.618;2022-09-01T15:15:09;0.93;;;0.83;;
27367;SDS011;14839;48.106;11.618;2022-09-01T15:17:35;1.77;;;1.00;;
27367;SDS011;14839;48.106;11.618;2022-09-01T15:20:00;1.93;;;0.90;;
27367;SDS011;14839;48.106;11.618;2022-09-01T15:22:47;1.40;;;1.10;;
27367;SDS011;14839;48.106;11.618;2022-09-01T15:25:13;0.97;;;0.93;;
27367;SDS011;14839;48.106;11.618;2022-09-01T15:27:40;3.37;;;1.30;;
27367;SDS011;14839;48.106;11.618;2022-09-01T15:30:07;1.30;;;1.20;;
27367;SDS011;14839;48.106;11.618;2022-09-01T15:32:40;1.33;;;1.10;;
27367;SDS011;14839;48.106;11.618;2022-09-01T15:35:06;1.30;;;1.20;;
27367;SDS011;14839;48.106;11.618;2022-09-01T15:37:33;1.33;;;1.00;;
27367;SDS011;14839;48.106;11.618;2022-09-01T15:39:59;2.03;;;1.20;;
27367;SDS011;14839;48.106;11.618;2022-09-01T15:42:24;1.50;;;1.10;;
27367;SDS011;14839;48.106;11.618;2022-09-01T15:44:50;1.13;;;1.03;;
27367;SDS011;14839;48.106;11.618;2022-09-01T15:47:16;4.27;;;0.80;;
27367;SDS011;14839;48.106;11.618;2022-09-01T15:49:41;1.27;;;0.80;;
27367;SDS011;14839;48.106;11.618;2022-09-01T15:52:07;1.13;;;1.02;;
27367;SDS011;14839;48.106;11.618;2022-09-01T15:54:36;5.60;;;1.03;;
27367;SDS011;14839;48.106;11.618;2022-09-01T15:57:03;1.33;;;1.00;;
27367;SDS011;14839;48.106;11.618;2022-09-01T15:59:29;1.40;;;1.00;;
27367;SDS011;14839;48.106;11.618;2022-09-01T16:01:54;1.23;;;0.80;;
27367;SDS011;14839;48.106;11.618;2022-09-01T16:04:21;1.67;;;0.97;;
27367;SDS011;14839;48.106;11.618;2022-09-01T16:06:47;1.10;;;0.90;;
27367;SDS011;14839;48.106;11.618;2022-09-01T16:09:15;0.87;;;0.73;;
27367;SDS011;14839;48.106;11.618;2022-09-01T16:11:42;1.30;;;0.80;;
27367;SDS011;14839;48.106;11.618;2022-09-01T16:14:08;0.80;;;0.80;;
27367;SDS011;14839;48.106;11.618;2022-09-01T16:16:45;1.83;;;0.90;;
27367;SDS011;14839;48.106;11.618;2022-09-01T16:22:15;1.20;;;1.03;;
27367;SDS011;14839;48.106;11.618;2022-09-01T16:24:58;1.10;;;1.00;;
27367;SDS011;14839;48.106;11.618;2022-09-01T16:27:27;0.70;;;0.70;;
27367;SDS011;14839;48.106;11.618;2022-09-01T16:33:35;0.90;;;0.90;;
27367;SDS011;14839;48.106;11.618;2022-09-01T16:36:02;1.93;;;0.93;;
27367;SDS011;14839;48.106;11.618;2022-09-01T16:38:46;0.97;;;0.80;;
27367;SDS011;14839;48.106;11.618;2022-09-01T17:00:22;1.13;;;0.90;;
27367;SDS011;14839;48.106;11.618;2022-09-01T17:03:05;1.20;;;1.10;;
27367;SDS011;14839;48.106;11.618;2022-09-01T17:05:47;9.40;;;3.07;;
27367;SDS011;14839;48.106;11.618;2022-09-01T17:08:24;5.90;;;3.10;;
27367;SDS011;14839;48.106;11.618;2022-09-01T17:13:37;1.77;;;1.20;;
27367;SDS011;14839;48.106;11.618;2022-09-01T17:18:45;1.17;;;1.00;;
27367;SDS011;14839;48.106;11.618;2022-09-01T17:21:19;2.50;;;0.77;;
27367;SDS011;14839;48.106;11.618;2022-09-01T17:30:02;1.40;;;0.90;;
27367;SDS011;14839;48.106;11.618;2022-09-01T17:38:01;2.70;;;1.00;;
27367;SDS011;14839;48.106;11.618;2022-09-01T17:43:57;0.70;;;0.70;;
27367;SDS011;14839;48.106;11.618;2022-09-01T17:46:38;1.60;;;0.80;;
27367;SDS011;14839;48.106;11.618;2022-09-01T17:52:19;1.63;;;0.90;;
27367;SDS011;14839;48.106;11.618;2022-09-01T17:57:33;1.47;;;0.87;;
27367;SDS011;14839;48.106;11.618;2022-09-01T18:05:43;1.40;;;1.00;;
27367;SDS011;14839;48.106;11.618;2022-09-01T18:08:19;1.30;;;0.87;;
27367;SDS011;14839;48.106;11.618;2022-09-01T18:11:04;2.60;;;1.10;;
27367;SDS011;14839;48.106;11.618;2022-09-01T18:13:41;1.53;;;0.80;;
27367;SDS011;14839;48.106;11.618;2022-09-01T18:16:10;0.80;;;0.70;;
27367;SDS011;14839;48.106;11.618;2022-09-01T18:18:40;1.63;;;1.10;;
27367;SDS011;14839;48.106;11.618;2022-09-01T18:21:09;1.93;;;1.30;;
27367;SDS011;14839;48.106;11.618;2022-09-01T18:23:40;2.03;;;1.17;;
27367;SDS011;14839;48.106;11.618;2022-09-01T18:29:03;1.47;;;1.00;;
27367;SDS011;14839;48.106;11.618;2022-09-01T18:34:04;1.97;;;1.00;;
27367;SDS011;14839;48.106;11.618;2022-09-01T18:50:33;3.97;;;1.27;;
27367;SDS011;14839;48.106;11.618;2022-09-01T19:01:42;2.17;;;0.93;;
27367;SDS011;14839;48.106;11.618;2022-09-01T19:04:23;3.13;;;1.23;;
27367;SDS011;14839;48.106;11.618;2022-09-01T19:09:34;1.37;;;1.20;;
27367;SDS011;14839;48.106;11.618;2022-09-01T19:12:29;1.63;;;1.30;;
27367;SDS011;14839;48.106;11.618;2022-09-01T19:14:59;2.17;;;1.30;;
27367;SDS011;14839;48.106;11.618;2022-09-01T19:17:54;1.60;;;1.10;;
27367;SDS011;14839;48.106;11.618;2022-09-01T19:21:10;2.17;;;1.23;;
27367;SDS011;14839;48.106;11.618;2022-09-01T19:26:04;1.63;;;0.97;;
27367;SDS011;14839;48.106;11.618;2022-09-01T19:28:40;1.60;;;1.07;;
27367;SDS011;14839;48.106;11.618;2022-09-01T19:31:09;4.50;;;1.43;;
27367;SDS011;14839;48.106;11.618;2022-09-01T19:33:58;1.57;;;1.10;;
27367;SDS011;14839;48.106;11.618;2022-09-01T19:36:41;1.23;;;1.13;;
27367;SDS011;14839;48.106;11.618;2022-09-01T19:39:11;3.20;;;1.20;;
27367;SDS011;14839;48.106;11.618;2022-09-01T19:41:43;1.30;;;1.13;;
27367;SDS011;14839;48.106;11.618;2022-09-01T19:46:50;1.47;;;1.37;;
27367;SDS011;14839;48.106;11.618;2022-09-01T19:49:25;2.00;;;1.20;;
27367;SDS011;14839;48.106;11.618;2022-09-01T19:52:04;1.20;;;1.10;;
27367;SDS011;14839;48.106;11.618;2022-09-01T19:54:45;1.43;;;1.20;;
27367;SDS011;14839;48.106;11.618;2022-09-01T19:57:45;2.10;;;1.30;;
27367;SDS011;14839;48.106;11.618;2022-09-01T20:00:21;2.50;;;1.43;;
27367;SDS011;14839;48.106;11.618;2022-09-01T20:05:33;1.30;;;1.20;;
27367;SDS011;14839;48.106;11.618;2022-09-01T20:11:09;1.33;;;1.03;;
27367;SDS011;14839;48.106;11.618;2022-09-01T20:13:52;1.43;;;1.10;;
27367;SDS011;14839;48.106;11.618;2022-09-01T20:16:33;4.47;;;1.33;;
27367;SDS011;14839;48.106;11.618;2022-09-01T20:22:31;0.90;;;0.83;;
27367;SDS011;14839;48.106;11.618;2022-09-01T20:25:18;1.63;;;1.13;;
27367;SDS011;14839;48.106;11.618;2022-09-01T20:35:43;3.83;;;1.20;;
27367;SDS011;14839;48.106;11.618;2022-09-01T20:41:08;1.07;;;0.97;;
27367;SDS011;14839;48.106;11.618;2022-09-01T20:43:42;2.20;;;1.40;;
27367;SDS011;14839;48.106;11.618;2022-09-01T20:46:10;1.40;;;0.90;;
27367;SDS011;14839;48.106;11.618;2022-09-01T20:48:39;2.10;;;1.03;;
27367;SDS011;14839;48.106;11.618;2022-09-01T20:53:48;3.07;;;1.10;;
27367;SDS011;14839;48.106;11.618;2022-09-01T20:56:28;1.67;;;1.20;;
27367;SDS011;14839;48.106;11.618;2022-09-01T21:01:56;1.67;;;1.10;;
27367;SDS011;14839;48.106;11.618;2022-09-01T21:04:50;1.50;;;1.23;;
27367;SDS011;14839;48.106;11.618;2022-09-01T21:07:24;2.97;;;1.10;;
27367;SDS011;14839;48.106;11.618;2022-09-01T21:16:25;1.90;;;1.30;;
27367;SDS011;14839;48.106;11.618;2022-09-01T21:22:05;3.10;;;1.50;;
27367;SDS011;14839;48.106;11.618;2022-09-01T21:24:33;1.53;;;1.30;;
27367;SDS011;14839;48.106;11.618;2022-09-01T21:27:00;4.17;;;1.37;;
27367;SDS011;14839;48.106;11.618;2022-09-01T21:29:39;1.40;;;1.30;;
